KDED/DED METAR and TAF weather

Enter ICAO airport designator
Station Type Date Time Source
KDED METAR 2020/07/11 20:35 UTC NOAA

KDED 112035Z AUTO 09014G18KT 7SM VCTS CLR 29/24 A2986 RMK AO2 LTG DSNT ALQDS T02870235


Station Type Date Time Source
KDED Decoded METAR 2020/07/11 20:35 UTC NOAA

Station name not available
Jul 11, 2020 - 04:35 PM EDT / 2020.07.11 2035 UTC
Wind: from the E (090 degrees) at 16 MPH (14 KT) gusting to 21 MPH (18 KT):0
Visibility: 7 mile(s):0
Sky conditions: clear
Weather: thunder in the vicinity; Lightning observed
Temperature: 83.7 F (28.7 C)
Dew Point: 74.3 F (23.5 C)
Relative Humidity: 73%
Pressure (altimeter): 29.86 in. Hg (1011 hPa)
ob: KDED 112035Z AUTO 09014G18KT 7SM VCTS CLR 29/24 A2986 RMK AO2 LTG DSNT ALQDS T02870235
cycle: 20

Station Type Date Time Source
KDED TAF UTC NOAA

Error!

Example: see airport list